sensor_id;sensor_type;location;lat;lon;timestamp;temperature;humidity
20315;DHT22;10315;50.958;13.080;2023-01-15T00:04:11;8.50;99.90
20315;DHT22;10315;50.958;13.080;2023-01-15T00:14:14;8.40;99.90
20315;DHT22;10315;50.958;13.080;2023-01-15T00:24:15;8.50;99.90
20315;DHT22;10315;50.958;13.080;2023-01-15T00:34:36;8.50;99.90
20315;DHT22;10315;50.958;13.080;2023-01-15T00:44:38;8.60;99.90
20315;DHT22;10315;50.958;13.080;2023-01-15T00:54:41;8.70;99.90
20315;DHT22;10315;50.958;13.080;2023-01-15T01:04:43;8.80;99.90
20315;DHT22;10315;50.958;13.080;2023-01-15T01:14:46;8.80;99.90
20315;DHT22;10315;50.958;13.080;2023-01-15T01:24:48;8.90;99.90
20315;DHT22;10315;50.958;13.080;2023-01-15T01:34:51;9.00;99.90
20315;DHT22;10315;50.958;13.080;2023-01-15T01:45:08;9.10;99.90
20315;DHT22;10315;50.958;13.080;2023-01-15T01:55:15;9.10;99.90
20315;DHT22;10315;50.958;13.080;2023-01-15T02:05:24;9.20;99.90
20315;DHT22;10315;50.958;13.080;2023-01-15T02:15:32;9.30;99.90
20315;DHT22;10315;50.958;13.080;2023-01-15T02:25:49;9.40;99.90
20315;DHT22;10315;50.958;13.080;2023-01-15T02:35:56;9.40;99.90
20315;DHT22;10315;50.958;13.080;2023-01-15T02:46:01;9.50;99.90
20315;DHT22;10315;50.958;13.080;2023-01-15T02:56:07;9.60;99.90
20315;DHT22;10315;50.958;13.080;2023-01-15T03:06:13;9.60;99.90
20315;DHT22;10315;50.958;13.080;2023-01-15T03:16:21;9.60;99.90
20315;DHT22;10315;50.958;13.080;2023-01-15T03:26:37;9.60;99.90
20315;DHT22;10315;50.958;13.080;2023-01-15T03:36:40;9.60;99.90
20315;DHT22;10315;50.958;13.080;2023-01-15T03:46:52;9.60;99.90
20315;DHT22;10315;50.958;13.080;2023-01-15T03:56:59;9.70;99.90
20315;DHT22;10315;50.958;13.080;2023-01-15T04:07:02;9.60;99.90
20315;DHT22;10315;50.958;13.080;2023-01-15T04:17:05;9.60;99.90
20315;DHT22;10315;50.958;13.080;2023-01-15T04:27:06;9.60;99.90
20315;DHT22;10315;50.958;13.080;2023-01-15T04:37:09;9.80;99.90
20315;DHT22;10315;50.958;13.080;2023-01-15T04:47:11;9.70;99.90
20315;DHT22;10315;50.958;13.080;2023-01-15T04:57:14;9.70;99.90
20315;DHT22;10315;50.958;13.080;2023-01-15T05:07:15;9.70;99.90
20315;DHT22;10315;50.958;13.080;2023-01-15T05:17:18;9.80;99.90
20315;DHT22;10315;50.958;13.080;2023-01-15T05:27:20;9.80;99.90
20315;DHT22;10315;50.958;13.080;2023-01-15T05:37:23;9.80;99.90
20315;DHT22;10315;50.958;13.080;2023-01-15T05:47:24;9.80;99.90
20315;DHT22;10315;50.958;13.080;2023-01-15T05:57:27;9.70;99.90
20315;DHT22;10315;50.958;13.080;2023-01-15T06:07:29;9.20;99.90
20315;DHT22;10315;50.958;13.080;2023-01-15T06:17:32;7.70;99.90
20315;DHT22;10315;50.958;13.080;2023-01-15T06:27:33;7.50;99.90
20315;DHT22;10315;50.958;13.080;2023-01-15T06:37:36;7.30;99.90
20315;DHT22;10315;50.958;13.080;2023-01-15T06:47:38;7.20;99.90
20315;DHT22;10315;50.958;13.080;2023-01-15T06:57:41;7.10;99.90
20315;DHT22;10315;50.958;13.080;2023-01-15T07:07:42;5.70;99.90
20315;DHT22;10315;50.958;13.080;2023-01-15T07:17:45;5.20;99.90
20315;DHT22;10315;50.958;13.080;2023-01-15T07:27:47;4.90;99.90
20315;DHT22;10315;50.958;13.080;2023-01-15T07:37:51;4.70;99.90
20315;DHT22;10315;50.958;13.080;2023-01-15T07:47:53;4.70;99.90
20315;DHT22;10315;50.958;13.080;2023-01-15T07:58:13;4.80;99.90
20315;DHT22;10315;50.958;13.080;2023-01-15T08:08:15;4.80;99.90
20315;DHT22;10315;50.958;13.080;2023-01-15T08:18:18;4.70;99.90
20315;DHT22;10315;50.958;13.080;2023-01-15T08:28:20;4.80;99.90
20315;DHT22;10315;50.958;13.080;2023-01-15T08:38:22;4.70;99.90
20315;DHT22;10315;50.958;13.080;2023-01-15T08:48:25;4.70;99.90
20315;DHT22;10315;50.958;13.080;2023-01-15T08:58:29;4.70;99.90
20315;DHT22;10315;50.958;13.080;2023-01-15T09:08:31;4.60;99.90
20315;DHT22;10315;50.958;13.080;2023-01-15T09:18:35;4.60;99.90
20315;DHT22;10315;50.958;13.080;2023-01-15T09:28:36;4.50;99.90
20315;DHT22;10315;50.958;13.080;2023-01-15T09:38:39;4.50;99.90
20315;DHT22;10315;50.958;13.080;2023-01-15T09:48:48;4.60;99.90
20315;DHT22;10315;50.958;13.080;2023-01-15T09:59:04;4.60;99.90
20315;DHT22;10315;50.958;13.080;2023-01-15T10:09:11;4.60;99.90
20315;DHT22;10315;50.958;13.080;2023-01-15T10:19:16;4.60;99.90
20315;DHT22;10315;50.958;13.080;2023-01-15T10:29:25;4.60;99.90
20315;DHT22;10315;50.958;13.080;2023-01-15T10:39:35;4.50;99.90
20315;DHT22;10315;50.958;13.080;2023-01-15T10:49:43;4.30;99.90
20315;DHT22;10315;50.958;13.080;2023-01-15T10:59:50;4.20;99.90
20315;DHT22;10315;50.958;13.080;2023-01-15T11:09:52;4.20;99.90
20315;DHT22;10315;50.958;13.080;2023-01-15T11:19:56;4.30;99.90
20315;DHT22;10315;50.958;13.080;2023-01-15T11:29:59;4.40;99.90
20315;DHT22;10315;50.958;13.080;2023-01-15T11:40:02;4.60;99.90
20315;DHT22;10315;50.958;13.080;2023-01-15T11:50:16;4.80;99.90
20315;DHT22;10315;50.958;13.080;2023-01-15T12:00:35;4.80;99.90
20315;DHT22;10315;50.958;13.080;2023-01-15T12:10:45;4.90;99.90
20315;DHT22;10315;50.958;13.080;2023-01-15T12:21:24;5.10;99.90
20315;DHT22;10315;50.958;13.080;2023-01-15T12:31:34;5.10;99.90
20315;DHT22;10315;50.958;13.080;2023-01-15T12:41:41;5.10;99.90
20315;DHT22;10315;50.958;13.080;2023-01-15T12:52:04;5.00;99.90
20315;DHT22;10315;50.958;13.080;2023-01-15T13:02:16;4.90;99.90
20315;DHT22;10315;50.958;13.080;2023-01-15T13:12:19;4.80;99.90
20315;DHT22;10315;50.958;13.080;2023-01-15T13:22:25;4.80;99.90
20315;DHT22;10315;50.958;13.080;2023-01-15T13:32:28;4.70;99.90
20315;DHT22;10315;50.958;13.080;2023-01-15T13:42:33;4.70;99.90
20315;DHT22;10315;50.958;13.080;2023-01-15T13:52:37;4.60;99.90
20315;DHT22;10315;50.958;13.080;2023-01-15T14:02:50;4.70;99.90
20315;DHT22;10315;50.958;13.080;2023-01-15T14:13:00;4.60;99.90
20315;DHT22;10315;50.958;13.080;2023-01-15T14:23:24;4.50;99.90
20315;DHT22;10315;50.958;13.080;2023-01-15T14:33:33;4.50;99.90
20315;DHT22;10315;50.958;13.080;2023-01-15T14:43:38;4.30;99.90
20315;DHT22;10315;50.958;13.080;2023-01-15T14:53:49;4.30;99.90
20315;DHT22;10315;50.958;13.080;2023-01-15T15:03:57;4.30;99.90
20315;DHT22;10315;50.958;13.080;2023-01-15T15:14:01;4.10;99.90
20315;DHT22;10315;50.958;13.080;2023-01-15T15:24:11;4.10;99.90
20315;DHT22;10315;50.958;13.080;2023-01-15T15:34:18;3.90;99.90
20315;DHT22;10315;50.958;13.080;2023-01-15T15:44:30;3.60;99.90
20315;DHT22;10315;50.958;13.080;2023-01-15T15:54:57;3.50;99.90
20315;DHT22;10315;50.958;13.080;2023-01-15T16:05:03;3.30;99.90
20315;DHT22;10315;50.958;13.080;2023-01-15T16:15:06;3.00;99.90
20315;DHT22;10315;50.958;13.080;2023-01-15T16:25:22;2.90;99.90
20315;DHT22;10315;50.958;13.080;2023-01-15T16:35:24;2.70;99.90
20315;DHT22;10315;50.958;13.080;2023-01-15T16:45:29;2.70;99.90
20315;DHT22;10315;50.958;13.080;2023-01-15T16:55:40;2.60;99.90
20315;DHT22;10315;50.958;13.080;2023-01-15T17:05:45;2.70;99.90
20315;DHT22;10315;50.958;13.080;2023-01-15T17:15:59;2.60;99.90
20315;DHT22;10315;50.958;13.080;2023-01-15T17:26:03;2.60;99.90
20315;DHT22;10315;50.958;13.080;2023-01-15T17:36:07;2.50;99.90
20315;DHT22;10315;50.958;13.080;2023-01-15T17:46:10;2.60;99.90
20315;DHT22;10315;50.958;13.080;2023-01-15T17:56:12;2.70;99.90
20315;DHT22;10315;50.958;13.080;2023-01-15T18:06:33;2.60;99.90
20315;DHT22;10315;50.958;13.080;2023-01-15T18:16:35;2.50;99.90
20315;DHT22;10315;50.958;13.080;2023-01-15T18:26:39;2.70;99.90
20315;DHT22;10315;50.958;13.080;2023-01-15T18:36:41;2.90;99.90
20315;DHT22;10315;50.958;13.080;2023-01-15T18:46:44;3.00;99.90
20315;DHT22;10315;50.958;13.080;2023-01-15T18:56:47;2.70;99.90
20315;DHT22;10315;50.958;13.080;2023-01-15T19:06:51;2.60;99.90
20315;DHT22;10315;50.958;13.080;2023-01-15T19:16:52;2.80;99.90
20315;DHT22;10315;50.958;13.080;2023-01-15T19:27:13;2.80;99.90
20315;DHT22;10315;50.958;13.080;2023-01-15T19:37:15;2.70;99.90
20315;DHT22;10315;50.958;13.080;2023-01-15T19:47:22;2.80;99.90
20315;DHT22;10315;50.958;13.080;2023-01-15T19:57:45;2.60;99.90
20315;DHT22;10315;50.958;13.080;2023-01-15T20:07:48;2.70;99.90
20315;DHT22;10315;50.958;13.080;2023-01-15T20:17:50;2.60;99.90
20315;DHT22;10315;50.958;13.080;2023-01-15T20:27:54;2.90;99.90
20315;DHT22;10315;50.958;13.080;2023-01-15T20:37:56;2.80;99.90
20315;DHT22;10315;50.958;13.080;2023-01-15T20:47:59;2.90;99.90
20315;DHT22;10315;50.958;13.080;2023-01-15T20:58:19;2.80;99.90
20315;DHT22;10315;50.958;13.080;2023-01-15T21:08:22;2.80;99.90
20315;DHT22;10315;50.958;13.080;2023-01-15T21:18:24;2.80;99.90
20315;DHT22;10315;50.958;13.080;2023-01-15T21:28:27;3.20;99.90
20315;DHT22;10315;50.958;13.080;2023-01-15T21:38:29;3.20;99.90
20315;DHT22;10315;50.958;13.080;2023-01-15T21:48:32;2.90;99.90
20315;DHT22;10315;50.958;13.080;2023-01-15T21:58:35;3.00;99.90
20315;DHT22;10315;50.958;13.080;2023-01-15T22:08:38;2.80;99.90
20315;DHT22;10315;50.958;13.080;2023-01-15T22:18:40;2.70;99.90
20315;DHT22;10315;50.958;13.080;2023-01-15T22:28:43;2.60;99.90
20315;DHT22;10315;50.958;13.080;2023-01-15T22:38:44;2.60;99.90
20315;DHT22;10315;50.958;13.080;2023-01-15T22:48:47;2.70;99.90
20315;DHT22;10315;50.958;13.080;2023-01-15T22:58:52;3.00;99.90
20315;DHT22;10315;50.958;13.080;2023-01-15T23:08:56;2.80;99.90
20315;DHT22;10315;50.958;13.080;2023-01-15T23:18:57;2.80;99.90
20315;DHT22;10315;50.958;13.080;2023-01-15T23:29:02;2.80;99.90
20315;DHT22;10315;50.958;13.080;2023-01-15T23:39:04;2.80;99.90
20315;DHT22;10315;50.958;13.080;2023-01-15T23:49:09;2.70;99.90
20315;DHT22;10315;50.958;13.080;2023-01-15T23:59:11;2.80;99.90
